الصفحة الرئيسية
METAR-TAF:

مطار :

سكاكا, السعودية

مطار الجوف المحلي

دائرة عرض: 29-47N, خط طول: 040-06E, ارتفاع: 689 متر

مراقبة الطقس الحالي

تاريخ ووقت الإصدار 1ساعة و 11 دقيقة قبل الساعة 02:00UTC
رياح هادئة
درجة الحرارة 20°درجة مئوية
الرطوبة 23%
ضغط 1015 hPa
الرؤية 10 كم أو أكثر
الغيوم لا تقل 1500 م ولا وجود لمزنة ركامية السحاب الأسود

METAR: OESK 300200Z 00000KT CAVOK 20/M02 Q1015 NOSIG

زمن: 06:11 (03:11 UTC)

توقعات

تاريخ ووقت الإصدار 4ساعات و 11 دقيقة قبل الساعة 23:00UTC
التوقعات صالحة من30 الساعة 00 UTC إلى 01 الساعة 06 UTC
ريح 10 عقدة من الشمال الشرقي
الرؤية 10 كم أو أكثر
الغيوم لا تقل 1500 م ولا وجود لمزنة ركامية السحاب الأسود

TAF: OESK 292300Z 3000/0106 04010KT CAVOK

METAR-TAF

أرصاد الطقس والتوقعات من أكثر من 4000 مطار (تقارير الطقس للمطار METAR والتنبؤ بالطقس بالمطارTAF).

المحطات المتاحة هي النقط الصفراء والحمراء على الخريطة.

حرك المؤشر فوق النقطة لمعرفة اسم المحطة.

ثم انقر لمعرفة أرصاد وتوقعات الطقس.

لتغيير الخارطة: اضغط على الأزرار الخضراء مع رمز الصليب الأسود للتكبير. على الزر الأخضر مع شرطة للتصغير، أو على الأسهم الخضراء للخرائط المجاورة.


METAR-TAF: